Atmautluak, Alaska
Current Conditions -  °F | °C
As of 7:53 PM on Friday 19 Dec 2014 (Local Time) from PABE Reporting Station
Clear Clear  
Wind Chill: -10°   Ceiling: Unl
Heat Index:   Visibility: 10mi
Dew Point:   Wind: 17mph
Humidity: 87%   Direction: 20°NNE
Pressure: 29.1"   Gusts: NA
Location:  60.7494°N, 161.727°W
Report Text: PABE 200453Z 02015KT 10SM CLR M13/M15 A2910 RMK AO2 SLP856 T11331150
Loading
Personal Weather Stations






























Interactive Weather Map New forecast layout! Learn more

10-Day Weather Forecast

Advertisements
Track Severe Weather on mobile